Time;durP1;ratioP1;P1;durP2;ratioP2;P2;SDS_P1;SDS_P2;PMS_P1;PMS_P2;Temp;Humidity;BMP_temperature;BMP_pressure;BME280_temperature;BME280_humidity;BME280_pressure;Samples;Min_cycle;Max_cycle;Signal;HPM_P1;HPM_P2
2022/05/07 00:01:31;;;;;;;15.77;11.15;;;12.10;99.90;;;;;;5068979;28;20033;-45
2022/05/07 00:03:56;;;;;;;15.23;12.00;;;12.10;99.90;;;;;;5076278;28;20036;-49
2022/05/07 00:06:22;;;;;;;15.63;11.00;;;12.10;99.90;;;;;;5080924;28;20043;-46
2022/05/07 00:08:47;;;;;;;12.77;10.37;;;12.10;99.90;;;;;;5077104;28;20306;-46
2022/05/07 00:11:15;;;;;;;17.88;12.30;;;12.00;99.90;;;;;;5074818;28;20032;-46
2022/05/07 00:13:41;;;;;;;14.00;12.35;;;12.00;99.90;;;;;;5073024;28;20093;-46
2022/05/07 00:18:51;;;;;;;14.82;9.60;;;12.00;99.90;;;;;;5072987;28;20045;-47
2022/05/07 00:21:17;;;;;;;14.03;11.20;;;11.90;99.90;;;;;;5071584;28;20040;-46
2022/05/07 00:23:42;;;;;;;17.93;15.20;;;11.90;99.90;;;;;;5072938;28;20048;-46
2022/05/07 00:26:08;;;;;;;15.95;13.88;;;11.90;99.90;;;;;;5071708;28;20373;-46
2022/05/07 00:28:35;;;;;;;27.90;15.57;;;12.00;99.90;;;;;;5087806;28;20089;-46
2022/05/07 00:31:01;;;;;;;16.92;11.05;;;12.00;99.90;;;;;;5077232;28;20055;-46
2022/05/07 00:33:26;;;;;;;10.43;9.33;;;12.00;99.90;;;;;;5076949;28;20041;-46
2022/05/07 00:35:52;;;;;;;17.17;14.17;;;12.00;99.90;;;;;;5079955;28;20294;-47
2022/05/07 00:38:18;;;;;;;16.90;15.07;;;11.90;99.90;;;;;;5076143;28;20039;-45
2022/05/07 00:40:43;;;;;;;18.60;14.30;;;11.90;99.90;;;;;;5071428;28;20314;-46
2022/05/07 00:43:12;;;;;;;21.13;15.70;;;11.80;99.90;;;;;;5072071;28;20383;-46
2022/05/07 00:45:38;;;;;;;19.48;16.50;;;11.80;99.90;;;;;;5080172;28;20079;-46
2022/05/07 00:48:04;;;;;;;26.40;17.73;;;11.80;99.90;;;;;;5075447;28;20109;-46
2022/05/07 00:53:14;;;;;;;20.58;18.45;;;11.80;99.90;;;;;;5073037;28;20037;-47
2022/05/07 00:55:41;;;;;;;25.93;17.87;;;11.90;99.90;;;;;;5078620;28;20489;-46
2022/05/07 00:58:07;;;;;;;26.08;18.85;;;11.90;99.90;;;;;;5075208;28;20282;-46
2022/05/07 01:00:32;;;;;;;21.17;18.95;;;11.90;99.90;;;;;;5071832;28;20043;-45
2022/05/07 01:02:58;;;;;;;21.80;18.67;;;12.00;99.90;;;;;;5084552;28;20435;-46
2022/05/07 01:05:23;;;;;;;25.08;21.45;;;11.90;99.90;;;;;;5071804;28;20405;-46
2022/05/07 01:07:50;;;;;;;23.60;19.80;;;12.00;99.90;;;;;;5071180;28;20462;-47
2022/05/07 01:10:17;;;;;;;29.73;22.27;;;11.90;99.90;;;;;;5071365;28;20410;-46
2022/05/07 01:12:42;;;;;;;;;;;11.90;99.90;;;;;;5079365;28;20036;-48
2022/05/07 01:15:08;;;;;;;27.13;19.58;;;11.90;99.90;;;;;;5083263;28;20349;-46
2022/05/07 01:17:34;;;;;;;23.92;21.08;;;11.80;99.90;;;;;;5079076;28;20454;-45
2022/05/07 01:20:00;;;;;;;24.05;20.75;;;11.80;99.90;;;;;;5100016;28;20071;-45
2022/05/07 01:22:28;;;;;;;22.20;19.95;;;11.70;99.90;;;;;;5059585;28;20110;-45
2022/05/07 01:24:54;;;;;;;25.15;21.73;;;11.70;99.90;;;;;;5070173;28;20051;-46
2022/05/07 01:27:20;;;;;;;23.05;20.65;;;11.70;99.90;;;;;;5076477;28;20032;-46
2022/05/07 01:29:47;;;;;;;22.80;20.37;;;11.70;99.90;;;;;;5072305;28;20095;-46
2022/05/07 01:32:13;;;;;;;21.88;19.45;;;11.70;99.90;;;;;;5071343;28;20396;-46
2022/05/07 01:34:38;;;;;;;23.02;20.58;;;11.70;99.90;;;;;;5070226;28;20040;-46
2022/05/07 01:37:04;;;;;;;26.75;21.13;;;11.80;99.90;;;;;;5076287;28;20223;-46
2022/05/07 01:39:29;;;;;;;22.30;19.98;;;11.80;99.90;;;;;;5071126;28;20043;-47
2022/05/07 01:41:55;;;;;;;25.20;20.13;;;11.80;99.90;;;;;;5072764;28;20045;-47
2022/05/07 01:44:20;;;;;;;28.37;21.37;;;11.80;99.90;;;;;;5075427;28;20036;-46
2022/05/07 01:49:30;;;;;;;25.25;20.77;;;11.90;99.90;;;;;;5071303;28;20037;-46
2022/05/07 01:51:56;;;;;;;23.23;19.90;;;11.90;99.90;;;;;;5069950;28;20394;-47
2022/05/07 01:54:21;;;;;;;20.73;18.57;;;11.90;99.90;;;;;;5069117;28;20512;-47
2022/05/07 01:56:47;;;;;;;21.13;18.83;;;11.90;99.90;;;;;;5067463;28;20040;-46
2022/05/07 01:59:12;;;;;;;23.97;20.10;;;11.90;99.90;;;;;;5070391;28;20282;-46
2022/05/07 02:01:38;;;;;;;21.77;18.97;;;11.80;99.90;;;;;;5071425;28;20045;-47
2022/05/07 02:04:03;;;;;;;22.60;19.77;;;11.80;99.90;;;;;;5070070;28;20093;-46
2022/05/07 02:06:29;;;;;;;24.92;21.25;;;11.80;99.90;;;;;;5070403;28;20047;-46
2022/05/07 02:08:54;;;;;;;23.07;19.70;;;11.80;99.90;;;;;;5076496;28;20044;-46
2022/05/07 02:11:20;;;;;;;28.15;21.95;;;11.70;99.90;;;;;;5071131;28;20048;-46
2022/05/07 02:13:45;;;;;;;24.80;22.30;;;11.70;99.90;;;;;;5070183;28;20052;-46
2022/05/07 02:16:11;;;;;;;24.73;21.83;;;11.60;99.90;;;;;;5070148;28;20033;-46
2022/05/07 02:18:37;;;;;;;32.37;24.10;;;11.60;99.90;;;;;;5073356;28;20075;-46
2022/05/07 02:21:02;;;;;;;26.50;23.70;;;11.60;99.90;;;;;;5097236;28;20482;-46
2022/05/07 02:23:28;;;;;;;34.75;24.02;;;11.60;99.90;;;;;;5070094;28;20032;-46
2022/05/07 02:25:53;;;;;;;30.90;23.90;;;11.60;99.90;;;;;;5075210;28;20039;-47
2022/05/07 02:28:19;;;;;;;25.30;22.60;;;11.60;99.90;;;;;;5070129;28;20036;-46
2022/05/07 02:30:44;;;;;;;27.77;23.60;;;11.60;99.90;;;;;;5070188;28;20787;-46
2022/05/07 02:33:10;;;;;;;35.00;24.13;;;11.70;99.90;;;;;;5070241;28;20040;-45
2022/05/07 02:35:36;;;;;;;23.60;21.10;;;11.70;99.90;;;;;;5071982;28;20300;-46
2022/05/07 02:38:02;;;;;;;28.08;24.33;;;11.70;99.90;;;;;;5069539;28;20044;-46
2022/05/07 02:40:27;;;;;;;31.43;23.73;;;11.70;99.90;;;;;;5070343;28;20117;-46
2022/05/07 02:42:53;;;;;;;27.00;21.80;;;11.80;99.90;;;;;;5077656;28;20282;-46
2022/05/07 02:45:18;;;;;;;24.17;21.53;;;11.80;99.90;;;;;;5072648;28;20040;-45
2022/05/07 02:47:44;;;;;;;27.73;24.02;;;11.80;99.90;;;;;;5070060;28;20041;-47
2022/05/07 02:50:10;;;;;;;21.65;19.45;;;11.80;99.90;;;;;;5070038;28;20120;-46
2022/05/07 02:52:36;;;;;;;;;;;11.80;99.90;;;;;;5072375;28;20038;-46
2022/05/07 02:55:04;;;;;;;22.38;18.73;;;11.90;99.90;;;;;;5068084;28;20312;-45
2022/05/07 02:57:29;;;;;;;24.50;20.17;;;11.90;99.90;;;;;;5070512;28;20451;-48
2022/05/07 02:59:55;;;;;;;24.70;22.03;;;11.90;99.90;;;;;;5070671;28;20041;-46
2022/05/07 03:02:21;;;;;;;31.17;23.38;;;11.80;99.90;;;;;;5069454;28;20289;-46
2022/05/07 03:04:47;;;;;;;24.52;21.77;;;11.80;99.90;;;;;;5069551;28;20048;-46
2022/05/07 03:07:14;;;;;;;28.60;22.30;;;11.70;99.90;;;;;;5070227;28;20036;-45
2022/05/07 03:09:39;;;;;;;;;;;11.70;99.90;;;;;;5071462;28;20041;-46
2022/05/07 03:12:05;;;;;;;23.95;21.00;;;11.70;99.90;;;;;;5085663;28;19916;-46
2022/05/07 03:14:32;;;;;;;24.30;21.63;;;11.70;99.90;;;;;;5069901;28;20115;-47
2022/05/07 03:16:58;;;;;;;25.70;22.73;;;11.80;99.90;;;;;;5069053;28;20035;-46
2022/05/07 03:19:24;;;;;;;45.90;22.20;;;11.90;99.90;;;;;;5081767;28;20501;-46
2022/05/07 03:21:49;;;;;;;25.30;21.35;;;11.80;99.90;;;;;;5080114;28;20115;-46
2022/05/07 03:24:15;;;;;;;24.30;21.53;;;11.80;99.90;;;;;;5075354;28;20033;-46
2022/05/07 03:26:40;;;;;;;27.20;22.27;;;11.90;99.90;;;;;;5068887;28;20357;-45
2022/05/07 03:29:06;;;;;;;24.90;21.60;;;11.90;99.90;;;;;;5069529;28;20689;-46
2022/05/07 03:31:32;;;;;;;30.52;24.02;;;11.90;99.90;;;;;;5071612;28;20046;-46
2022/05/07 03:33:57;;;;;;;31.37;24.83;;;11.90;99.90;;;;;;5081973;28;20036;-46
2022/05/07 03:36:23;;;;;;;26.30;23.47;;;11.90;99.90;;;;;;5070430;28;20344;-47
2022/05/07 03:38:48;;;;;;;31.35;23.98;;;11.90;99.90;;;;;;5077758;28;20485;-46
2022/05/07 03:41:19;;;;;;;31.60;24.97;;;12.00;99.90;;;;;;5075592;28;20036;-49
2022/05/07 03:43:45;;;;;;;28.83;25.17;;;11.90;99.90;;;;;;5068694;28;20418;-48
2022/05/07 03:46:11;;;;;;;31.45;25.05;;;12.00;99.90;;;;;;5072125;28;20132;-46
2022/05/07 03:48:37;;;;;;;31.50;25.65;;;11.90;99.90;;;;;;5074550;28;20040;-46
2022/05/07 03:51:03;;;;;;;33.42;25.25;;;11.90;99.90;;;;;;5073132;28;20041;-46
2022/05/07 03:53:31;;;;;;;32.38;25.73;;;12.00;99.90;;;;;;5073197;28;20048;-46
2022/05/07 03:56:02;;;;;;;37.25;26.25;;;12.00;99.90;;;;;;5070477;28;20029;-45
2022/05/07 03:58:29;;;;;;;33.75;25.80;;;12.00;99.90;;;;;;5074276;28;20115;-46
2022/05/07 04:00:56;;;;;;;29.40;25.23;;;12.00;99.90;;;;;;5075041;28;20033;-45
2022/05/07 04:03:23;;;;;;;34.05;25.10;;;12.00;99.90;;;;;;5072908;28;20056;-46
2022/05/07 04:05:48;;;;;;;;;;;12.00;99.90;;;;;;5074830;28;20048;-46
2022/05/07 04:08:14;;;;;;;29.27;24.05;;;11.90;99.90;;;;;;5091874;28;19923;-47
2022/05/07 04:10:42;;;;;;;32.72;28.35;;;11.90;99.90;;;;;;5073570;28;20047;-46
2022/05/07 04:13:08;;;;;;;31.00;27.73;;;11.90;99.90;;;;;;5071840;28;20043;-45
2022/05/07 04:15:33;;;;;;;31.13;27.58;;;11.90;99.90;;;;;;5072163;28;20452;-46
2022/05/07 04:17:59;;;;;;;32.38;27.88;;;11.90;99.90;;;;;;5072627;28;20024;-47
2022/05/07 04:20:24;;;;;;;33.77;27.83;;;11.90;99.90;;;;;;5073237;28;20397;-45
2022/05/07 04:22:50;;;;;;;39.60;30.03;;;11.90;99.90;;;;;;5072372;28;20283;-46
2022/05/07 04:25:16;;;;;;;35.40;30.00;;;12.00;99.90;;;;;;5071532;28;20045;-46
2022/05/07 04:27:41;;;;;;;35.30;30.38;;;12.00;99.90;;;;;;5080341;28;20075;-45
2022/05/07 04:30:07;;;;;;;42.10;29.90;;;12.00;99.90;;;;;;5072838;28;20032;-46
2022/05/07 04:32:33;;;;;;;38.60;29.50;;;12.00;99.90;;;;;;5077361;28;20282;-46
2022/05/07 04:34:58;;;;;;;34.33;29.10;;;12.00;99.90;;;;;;5074106;28;20044;-46
2022/05/07 04:37:25;;;;;;;32.63;28.40;;;12.00;99.90;;;;;;5072209;28;20301;-46
2022/05/07 04:39:51;;;;;;;33.70;28.52;;;12.00;99.90;;;;;;5070921;28;20047;-45
2022/05/07 04:42:17;;;;;;;35.97;29.83;;;12.00;99.90;;;;;;5072050;28;20044;-47
2022/05/07 04:44:42;;;;;;;37.20;28.98;;;12.00;99.90;;;;;;5076069;28;20027;-46
2022/05/07 04:47:08;;;;;;;39.30;29.67;;;12.00;99.90;;;;;;5082085;28;20494;-46
2022/05/07 04:49:35;;;;;;;40.05;28.23;;;12.00;99.90;;;;;;5068582;28;20037;-48
2022/05/07 04:52:00;;;;;;;34.80;28.45;;;12.10;99.90;;;;;;5072655;28;20037;-46
2022/05/07 04:54:26;;;;;;;37.33;28.95;;;12.10;99.90;;;;;;5069716;28;20044;-46
2022/05/07 04:56:53;;;;;;;31.83;27.57;;;12.10;99.90;;;;;;5084373;28;20501;-45
2022/05/07 04:59:20;;;;;;;41.40;28.10;;;12.20;99.90;;;;;;5080121;28;20309;-46
2022/05/07 05:01:46;;;;;;;33.70;26.75;;;12.20;99.90;;;;;;5080951;28;20025;-46
2022/05/07 05:04:12;;;;;;;;;;;12.30;99.90;;;;;;5082647;28;20047;-46
2022/05/07 05:06:38;;;;;;;30.13;23.63;;;12.30;99.90;;;;;;5071043;28;19920;-47
2022/05/07 05:09:05;;;;;;;28.42;24.48;;;12.30;99.90;;;;;;5073038;28;20119;-46
2022/05/07 05:11:31;;;;;;;29.75;26.58;;;12.40;99.90;;;;;;5080997;28;20110;-46
2022/05/07 05:13:57;;;;;;;28.98;24.88;;;12.40;99.90;;;;;;5070536;28;20115;-46
2022/05/07 05:16:23;;;;;;;31.00;25.37;;;12.40;99.90;;;;;;5071018;28;20040;-46
2022/05/07 05:18:49;;;;;;;31.33;26.33;;;12.40;99.90;;;;;;5070849;28;20290;-47
2022/05/07 05:21:15;;;;;;;37.67;25.92;;;12.40;99.90;;;;;;5072010;28;20122;-45
2022/05/07 05:23:40;;;;;;;36.30;28.40;;;12.40;99.90;;;;;;5080453;28;20032;-46
2022/05/07 05:26:06;;;;;;;38.50;25.52;;;12.50;99.90;;;;;;5075067;28;20451;-46
2022/05/07 05:28:32;;;;;;;29.95;26.05;;;12.50;99.90;;;;;;5070257;28;20287;-46
2022/05/07 05:30:58;;;;;;;29.13;25.25;;;12.50;99.90;;;;;;5072326;28;20048;-46
2022/05/07 05:33:24;;;;;;;30.10;25.92;;;12.60;99.90;;;;;;5072145;28;20048;-46
2022/05/07 05:35:49;;;;;;;29.90;23.43;;;12.60;99.90;;;;;;5077427;28;20048;-45
2022/05/07 05:38:15;;;;;;;29.50;24.83;;;12.70;99.90;;;;;;5070906;28;20039;-48
2022/05/07 05:40:41;;;;;;;29.40;24.45;;;12.70;99.90;;;;;;5071113;28;20079;-47
2022/05/07 05:43:08;;;;;;;29.95;26.65;;;12.70;99.90;;;;;;5070689;28;20386;-46
2022/05/07 05:45:34;;;;;;;29.77;25.83;;;12.70;99.90;;;;;;5070849;28;20485;-46
2022/05/07 05:48:01;;;;;;;27.67;24.08;;;12.80;99.90;;;;;;5070806;28;20183;-46
2022/05/07 05:50:29;;;;;;;26.88;23.98;;;12.80;99.90;;;;;;5070942;28;20048;-47
2022/05/07 05:52:55;;;;;;;28.27;24.00;;;12.80;99.90;;;;;;5075131;28;20432;-47
2022/05/07 05:55:20;;;;;;;29.42;24.13;;;12.90;99.90;;;;;;5080218;28;20037;-45
2022/05/07 05:57:46;;;;;;;27.55;24.00;;;13.00;99.90;;;;;;5081008;28;20028;-47
2022/05/07 06:00:12;;;;;;;27.92;23.63;;;13.00;99.90;;;;;;5071077;28;20043;-46
2022/05/07 06:02:38;;;;;;;28.27;23.60;;;13.00;99.90;;;;;;5069802;28;20044;-51
2022/05/07 06:05:04;;;;;;;30.25;25.02;;;13.10;99.90;;;;;;5068474;28;20044;-47
2022/05/07 06:07:29;;;;;;;31.15;25.30;;;13.10;99.90;;;;;;5071936;28;20486;-46
2022/05/07 06:09:55;;;;;;;27.10;24.20;;;13.20;99.90;;;;;;5070640;28;20047;-45
2022/05/07 06:12:21;;;;;;;36.38;24.00;;;13.30;99.90;;;;;;5090558;28;20047;-46
2022/05/07 06:14:47;;;;;;;33.58;23.25;;;13.30;99.90;;;;;;5069260;28;20044;-46
2022/05/07 06:17:13;;;;;;;32.17;26.15;;;13.30;99.90;;;;;;5070994;28;20028;-46
2022/05/07 06:19:39;;;;;;;29.73;24.83;;;13.40;99.90;;;;;;5068507;28;20098;-46
2022/05/07 06:22:04;;;;;;;29.33;25.77;;;13.50;99.90;;;;;;5071331;28;20375;-46
2022/05/07 06:27:31;;;;;;;30.77;24.15;;;13.70;99.90;;;;;;5063910;28;20111;-49
2022/05/07 06:30:01;;;;;;;31.70;25.02;;;13.80;99.90;;;;;;5061685;28;20048;-46
2022/05/07 06:32:34;;;;;;;36.53;25.27;;;13.90;99.90;;;;;;5068879;28;20193;-46
2022/05/07 06:35:04;;;;;;;30.92;25.60;;;14.00;99.90;;;;;;5066821;28;20154;-46
2022/05/07 06:37:31;;;;;;;30.95;27.55;;;14.10;99.90;;;;;;5069956;28;20055;-46
2022/05/07 06:39:57;;;;;;;31.48;24.88;;;14.20;99.90;;;;;;5069325;28;20398;-46
2022/05/07 06:42:23;;;;;;;26.42;23.73;;;14.20;99.90;;;;;;5073041;28;20033;-48
2022/05/07 06:44:48;;;;;;;31.55;24.08;;;14.30;99.90;;;;;;5066439;28;20559;-46
2022/05/07 06:47:14;;;;;;;28.57;24.73;;;14.40;99.90;;;;;;5073802;28;20038;-46
2022/05/07 06:49:40;;;;;;;37.67;24.05;;;14.50;99.90;;;;;;5068926;28;20365;-46
2022/05/07 06:52:06;;;;;;;32.03;25.08;;;14.60;99.90;;;;;;5070263;28;20189;-47
2022/05/07 06:54:31;;;;;;;30.15;25.27;;;14.70;99.90;;;;;;5069268;28;20035;-48
2022/05/07 06:56:57;;;;;;;32.75;23.88;;;14.80;99.90;;;;;;5082593;28;20133;-46
2022/05/07 06:59:22;;;;;;;26.90;24.05;;;14.80;99.90;;;;;;5068266;28;20036;-46
2022/05/07 07:01:48;;;;;;;28.63;24.40;;;14.90;99.90;;;;;;5070075;28;20032;-47
2022/05/07 07:04:14;;;;;;;29.50;24.70;;;15.00;99.90;;;;;;5069602;28;20078;-46
2022/05/07 07:06:39;;;;;;;27.65;24.70;;;15.10;99.90;;;;;;5085060;28;20036;-46
2022/05/07 07:09:05;;;;;;;33.35;24.73;;;15.10;99.90;;;;;;5082756;28;20051;-46
2022/05/07 07:11:31;;;;;;;28.25;23.05;;;15.20;99.90;;;;;;5069381;28;20489;-46
2022/05/07 07:13:56;;;;;;;27.77;23.45;;;15.30;99.90;;;;;;5070031;28;20090;-46
2022/05/07 07:16:22;;;;;;;33.88;24.48;;;15.30;99.90;;;;;;5088886;28;20036;-47
2022/05/07 07:18:48;;;;;;;32.22;21.50;;;15.40;99.90;;;;;;5084160;28;20032;-46
2022/05/07 07:21:13;;;;;;;30.95;24.10;;;15.50;99.90;;;;;;5090051;28;20113;-46
2022/05/07 07:23:39;;;;;;;31.77;23.95;;;15.50;99.90;;;;;;5080340;28;20040;-46
2022/05/07 07:26:05;;;;;;;26.77;21.70;;;15.60;99.90;;;;;;5071113;28;20067;-46
2022/05/07 07:28:31;;;;;;;29.10;23.80;;;15.60;99.90;;;;;;5074274;28;20063;-46
2022/05/07 07:30:58;;;;;;;26.73;22.73;;;15.60;99.90;;;;;;5074189;28;20036;-46
2022/05/07 07:33:23;;;;;;;34.40;23.50;;;15.70;99.90;;;;;;5089838;28;20056;-46
2022/05/07 07:35:49;;;;;;;29.20;22.73;;;15.80;99.90;;;;;;5087387;28;20505;-46
2022/05/07 07:38:15;;;;;;;36.38;21.48;;;15.80;99.90;;;;;;5073810;28;20040;-46
2022/05/07 07:40:41;;;;;;;27.27;21.23;;;15.80;99.90;;;;;;5085226;28;20036;-46
2022/05/07 07:43:06;;;;;;;31.73;23.08;;;15.80;99.90;;;;;;5080674;28;20482;-46
2022/05/07 07:48:16;;;;;;;34.90;22.20;;;15.80;99.90;;;;;;5068250;28;20037;-48
2022/05/07 07:50:44;;;;;;;27.23;23.05;;;15.90;99.90;;;;;;5082728;28;20183;-46
2022/05/07 07:53:11;;;;;;;30.13;24.88;;;16.00;99.90;;;;;;5089179;28;20509;-46
2022/05/07 07:55:38;;;;;;;26.45;23.30;;;16.10;99.90;;;;;;5077584;28;20110;-47
2022/05/07 07:58:08;;;;;;;28.48;23.98;;;16.20;99.90;;;;;;5085914;28;20072;-46
2022/05/07 08:00:36;;;;;;;31.45;23.92;;;16.30;99.90;;;;;;5085831;28;20036;-47
2022/05/07 08:03:05;;;;;;;28.52;23.77;;;16.40;99.90;;;;;;5086681;28;20447;-47
2022/05/07 08:05:33;;;;;;;32.20;26.35;;;16.50;99.90;;;;;;5065886;28;20424;-50
2022/05/07 08:13:34;;;;;;;28.15;24.52;;;16.40;99.90;;;;;;5089133;28;20040;-46
2022/05/07 08:16:01;;;;;;;27.15;23.33;;;16.40;99.90;;;;;;5072576;28;20517;-46
2022/05/07 08:18:27;;;;;;;27.75;23.10;;;16.40;99.90;;;;;;5083229;28;20135;-46
2022/05/07 08:20:53;;;;;;;28.55;23.42;;;16.50;99.90;;;;;;5069351;28;20083;-46
2022/05/07 08:23:19;;;;;;;30.02;24.10;;;16.60;99.90;;;;;;5069091;28;20495;-46
2022/05/07 08:25:45;;;;;;;31.60;24.55;;;16.70;99.90;;;;;;5078882;28;20078;-46
2022/05/07 08:28:10;;;;;;;28.02;24.75;;;16.70;99.90;;;;;;5091372;28;20036;-46
2022/05/07 08:30:36;;;;;;;31.33;24.52;;;16.90;99.90;;;;;;5082928;28;20039;-47
2022/05/07 08:33:04;;;;;;;24.48;21.85;;;16.90;99.90;;;;;;5092775;28;20044;-48
2022/05/07 08:35:30;;;;;;;24.63;21.42;;;17.00;99.90;;;;;;5079362;28;20147;-46
2022/05/07 08:37:55;;;;;;;28.42;23.70;;;17.00;99.90;;;;;;5081796;28;20052;-46
2022/05/07 08:40:22;;;;;;;28.98;22.20;;;17.00;99.90;;;;;;5083905;28;20040;-46
2022/05/07 08:42:48;;;;;;;29.58;23.13;;;17.00;99.90;;;;;;5073773;28;20040;-47
2022/05/07 08:45:14;;;;;;;24.30;21.50;;;17.10;99.90;;;;;;5076921;28;20081;-47
2022/05/07 08:47:43;;;;;;;23.75;21.15;;;17.10;99.90;;;;;;5071953;28;20094;-46
2022/05/07 08:50:11;;;;;;;31.98;21.02;;;17.10;99.90;;;;;;5078270;28;20417;-46
2022/05/07 08:52:41;;;;;;;25.33;19.65;;;17.10;99.90;;;;;;5072502;28;20072;-47
2022/05/07 08:55:10;;;;;;;22.27;18.25;;;17.10;99.90;;;;;;5065851;28;20037;-46
2022/05/07 08:57:36;;;;;;;25.98;19.50;;;17.10;99.90;;;;;;5086912;28;20036;-46
2022/05/07 09:00:02;;;;;;;24.48;18.40;;;17.20;99.90;;;;;;5086558;28;20383;-47
2022/05/07 09:02:35;;;;;;;20.42;17.63;;;17.20;99.90;;;;;;5086370;28;20044;-47
2022/05/07 09:05:01;;;;;;;25.10;18.20;;;17.20;99.90;;;;;;5069760;28;20075;-48
2022/05/07 09:07:27;;;;;;;23.05;16.95;;;17.20;99.90;;;;;;5072009;28;20098;-47
2022/05/07 09:09:52;;;;;;;21.52;14.73;;;17.20;99.90;;;;;;5080530;28;20054;-47
2022/05/07 09:12:22;;;;;;;26.52;17.52;;;17.20;99.90;;;;;;5091180;28;20032;-47
2022/05/07 09:14:48;;;;;;;23.25;14.77;;;17.20;99.90;;;;;;5073677;28;20040;-46
2022/05/07 09:17:13;;;;;;;20.98;16.88;;;17.30;99.50;;;;;;5071809;28;20513;-47
2022/05/07 09:19:39;;;;;;;22.23;16.00;;;17.30;99.30;;;;;;5072000;28;20077;-48
2022/05/07 09:22:06;;;;;;;23.25;16.95;;;17.40;99.40;;;;;;5073219;28;20504;-47
2022/05/07 09:24:32;;;;;;;24.90;15.98;;;17.50;99.90;;;;;;5077927;28;20044;-46
2022/05/07 09:26:58;;;;;;;24.10;15.95;;;17.70;99.80;;;;;;5085655;28;20493;-47
2022/05/07 09:29:27;;;;;;;32.03;15.45;;;17.80;99.60;;;;;;5071381;28;20037;-47
2022/05/07 09:31:53;;;;;;;24.73;15.05;;;17.90;98.90;;;;;;5070920;28;20044;-46
2022/05/07 09:37:16;;;;;;;;;;;17.90;97.50;;;;;;5069604;28;20486;-47
2022/05/07 09:39:46;;;;;;;18.15;14.73;;;18.00;97.90;;;;;;5067592;28;20419;-49
2022/05/07 09:42:13;;;;;;;24.35;16.35;;;18.20;98.40;;;;;;5071594;28;20040;-48
2022/05/07 09:44:40;;;;;;;19.85;14.32;;;18.40;99.10;;;;;;5082115;28;20390;-48
2022/05/07 09:47:06;;;;;;;23.40;14.95;;;18.60;98.30;;;;;;5069901;28;20043;-49
2022/05/07 09:49:33;;;;;;;21.73;14.65;;;18.70;97.60;;;;;;5071187;28;20406;-47
2022/05/07 09:51:59;;;;;;;23.33;15.82;;;18.70;97.10;;;;;;5070137;28;20044;-47
2022/05/07 09:57:30;;;;;;;;;;;18.80;97.00;;;;;;5083323;28;20048;-47
2022/05/07 10:00:03;;;;;;;26.65;15.32;;;18.70;96.80;;;;;;5091635;28;19920;-46
2022/05/07 10:02:59;;;;;;;24.95;15.95;;;18.80;97.10;;;;;;5086750;28;20083;-50
2022/05/07 10:05:54;;;;;;;19.15;13.82;;;18.90;96.30;;;;;;5071879;28;20058;-48
2022/05/07 10:09:02;;;;;;;21.38;13.57;;;18.90;96.30;;;;;;5050832;28;20040;-47
2022/05/07 10:11:28;;;;;;;18.58;13.05;;;19.00;96.60;;;;;;5056102;28;20051;-47
2022/05/07 10:13:55;;;;;;;22.45;13.52;;;19.20;96.20;;;;;;5071642;28;20039;-47
2022/05/07 10:16:21;;;;;;;17.83;13.75;;;19.30;95.80;;;;;;5085043;28;20048;-49
2022/05/07 10:18:47;;;;;;;22.90;15.10;;;19.40;96.00;;;;;;5069916;28;20036;-50
2022/05/07 10:21:14;;;;;;;23.05;14.20;;;19.60;95.50;;;;;;5070074;28;20056;-47
2022/05/07 10:23:52;;;;;;;25.20;15.25;;;19.70;94.50;;;;;;5071646;28;20043;-47
2022/05/07 10:26:19;;;;;;;23.48;13.65;;;19.80;95.00;;;;;;5074263;28;20047;-47
2022/05/07 10:28:45;;;;;;;22.80;13.38;;;19.90;95.40;;;;;;5087148;28;20128;-46
2022/05/07 10:31:27;;;;;;;21.90;14.20;;;20.10;94.60;;;;;;5079898;28;20082;-47
2022/05/07 10:33:52;;;;;;;19.35;13.82;;;20.20;94.30;;;;;;5074063;28;20130;-47
2022/05/07 10:36:19;;;;;;;16.33;12.43;;;20.40;94.70;;;;;;5070229;28;20028;-49
2022/05/07 10:38:49;;;;;;;19.23;13.30;;;20.50;93.90;;;;;;5070036;28;20044;-47
2022/05/07 10:41:15;;;;;;;23.08;15.55;;;20.60;93.50;;;;;;5070307;28;20067;-47
2022/05/07 10:44:06;;;;;;;21.25;13.07;;;20.60;93.70;;;;;;5069647;28;20076;-47
2022/05/07 10:46:45;;;;;;;17.42;12.55;;;20.60;94.20;;;;;;5068813;28;20055;-48
2022/05/07 10:49:11;;;;;;;21.55;13.68;;;20.70;93.30;;;;;;5078898;28;20077;-47
2022/05/07 10:51:50;;;;;;;23.15;13.27;;;20.70;93.90;;;;;;5074176;28;20044;-47
2022/05/07 10:54:23;;;;;;;21.92;15.15;;;20.80;93.60;;;;;;5077472;28;20035;-48
2022/05/07 10:56:51;;;;;;;14.55;11.60;;;20.80;92.50;;;;;;5072814;28;20421;-47
2022/05/07 10:59:20;;;;;;;21.25;14.98;;;20.90;93.40;;;;;;5069693;28;20036;-47
2022/05/07 11:01:46;;;;;;;24.67;16.50;;;20.90;93.30;;;;;;5078074;28;20032;-49
2022/05/07 11:04:13;;;;;;;;;;;20.90;92.80;;;;;;5070003;28;20055;-48
2022/05/07 11:06:51;;;;;;;21.35;14.90;;;20.90;92.70;;;;;;5067574;28;19917;-49
2022/05/07 11:09:19;;;;;;;25.92;16.13;;;20.90;92.70;;;;;;5068433;28;20037;-47
2022/05/07 11:11:48;;;;;;;18.88;14.80;;;20.90;93.00;;;;;;5065550;28;20374;-47
2022/05/07 11:14:27;;;;;;;25.92;17.00;;;20.80;92.20;;;;;;5068774;28;20036;-47
2022/05/07 11:16:53;;;;;;;24.75;16.75;;;20.90;92.30;;;;;;5068810;28;20608;-47
2022/05/07 11:19:25;;;;;;;25.73;17.15;;;20.80;92.40;;;;;;5068046;28;20032;-47
2022/05/07 11:21:52;;;;;;;26.77;17.17;;;20.80;92.50;;;;;;5070141;28;20048;-47
2022/05/07 11:24:20;;;;;;;24.58;16.92;;;20.70;92.40;;;;;;5067892;28;20126;-46
2022/05/07 11:26:56;;;;;;;22.52;16.75;;;20.70;92.40;;;;;;5069216;28;20594;-47
2022/05/07 11:29:22;;;;;;;23.80;18.15;;;20.70;92.50;;;;;;5069290;28;20047;-47
2022/05/07 11:32:02;;;;;;;28.40;18.45;;;20.70;92.80;;;;;;5069526;28;20047;-48
2022/05/07 11:34:28;;;;;;;21.38;17.13;;;20.80;92.20;;;;;;5068424;28;20049;-47
2022/05/07 11:36:54;;;;;;;21.48;17.13;;;20.80;92.00;;;;;;5068105;28;20382;-47
2022/05/07 11:39:21;;;;;;;26.95;19.00;;;20.80;92.20;;;;;;5067556;28;20128;-47
2022/05/07 11:41:53;;;;;;;25.15;20.73;;;20.80;91.80;;;;;;5067826;28;20558;-47
2022/05/07 11:47:23;;;;;;;28.50;21.17;;;20.70;92.10;;;;;;5065817;28;20048;-47
2022/05/07 11:50:07;;;;;;;26.45;19.67;;;20.60;92.00;;;;;;5069484;28;20071;-47
2022/05/07 11:52:33;;;;;;;27.02;21.25;;;20.60;91.90;;;;;;5068096;28;20072;-48
2022/05/07 11:55:06;;;;;;;26.17;21.50;;;20.60;92.20;;;;;;5064467;28;20040;-47
2022/05/07 11:57:34;;;;;;;26.38;20.15;;;20.50;91.80;;;;;;5049034;28;20077;-47
2022/05/07 12:00:17;;;;;;;21.30;18.83;;;20.50;92.30;;;;;;5051518;28;20102;-50
2022/05/07 12:02:49;;;;;;;22.27;18.25;;;20.40;91.90;;;;;;5072085;28;20074;-52
2022/05/07 12:05:15;;;;;;;24.45;18.15;;;20.40;91.70;;;;;;5072374;28;20045;-47
2022/05/07 12:07:41;;;;;;;25.27;17.92;;;20.40;91.60;;;;;;5073008;28;20058;-48
2022/05/07 12:10:08;;;;;;;20.13;17.70;;;20.40;91.30;;;;;;5072879;28;20413;-47
2022/05/07 12:12:33;;;;;;;23.90;19.60;;;20.40;91.80;;;;;;5072775;28;20493;-47
2022/05/07 12:14:59;;;;;;;22.42;18.08;;;20.40;92.10;;;;;;5071403;28;20047;-47
2022/05/07 12:20:10;;;;;;;20.08;14.13;;;20.30;91.10;;;;;;5072975;28;20366;-47
2022/05/07 12:30:48;;;;;;;18.20;13.10;;;20.40;91.00;;;;;;5073028;28;20044;-47
2022/05/07 12:33:14;;;;;;;27.00;14.20;;;20.40;90.60;;;;;;5071866;28;20040;-48
2022/05/07 12:35:39;;;;;;;19.75;13.88;;;20.40;90.70;;;;;;5071764;28;20037;-47
2022/05/07 12:38:05;;;;;;;;;;;20.50;90.80;;;;;;5072410;28;20043;-48
2022/05/07 12:40:31;;;;;;;35.88;15.43;;;20.50;90.60;;;;;;5071801;28;19920;-47
2022/05/07 12:42:58;;;;;;;24.73;15.75;;;20.60;90.70;;;;;;5071760;28;20033;-47
2022/05/07 12:45:24;;;;;;;19.65;13.05;;;20.60;90.30;;;;;;5071720;28;20036;-48
2022/05/07 12:47:50;;;;;;;16.45;11.13;;;20.70;90.20;;;;;;5072315;28;20090;-50
2022/05/07 12:50:16;;;;;;;;;;;20.70;90.20;;;;;;5088242;28;20076;-48
2022/05/07 12:52:41;;;;;;;14.45;10.90;;;20.70;89.30;;;;;;5067749;28;20015;-49
2022/05/07 12:55:07;;;;;;;;;;;20.70;90.20;;;;;;5070719;28;20555;-50
2022/05/07 12:57:33;;;;;;;15.52;11.10;;;20.70;87.90;;;;;;5087061;28;20429;-48
2022/05/07 12:59:58;;;;;;;;;;;20.70;90.10;;;;;;5071664;28;20028;-48
2022/05/07 13:02:24;;;;;;;14.70;13.18;;;20.60;88.80;;;;;;5073460;28;19955;-48
2022/05/07 13:04:49;;;;;;;;;;;20.70;89.90;;;;;;5071450;28;20044;-48
2022/05/07 13:07:15;;;;;;;19.58;14.77;;;20.70;89.80;;;;;;5091283;28;20293;-48
2022/05/07 13:09:40;;;;;;;;;;;20.70;90.30;;;;;;5079370;28;20170;-47